sensor_id;sensor_type;location;lat;lon;timestamp;pressure;altitude;pressure_sealevel;temperature;humidity
64023;BME280;50264;52.088;5.296;2023-04-01T00:01:25;98986.0;;;10.9;100.0
64023;BME280;50264;52.088;5.296;2023-04-01T00:03:02;98983.0;;;10.84;100.0
64023;BME280;50264;52.088;5.296;2023-04-01T00:06:16;98994.0;;;10.94;100.0
64023;BME280;50264;52.088;5.296;2023-04-01T00:07:53;98992.0;;;11.04;100.0
64023;BME280;50264;52.088;5.296;2023-04-01T00:09:29;98995.0;;;11.04;100.0
64023;BME280;50264;52.088;5.296;2023-04-01T00:11:05;98995.0;;;11.08;100.0
64023;BME280;50264;52.088;5.296;2023-04-01T00:14:19;98998.0;;;10.96;100.0
64023;BME280;50264;52.088;5.296;2023-04-01T00:15:55;98998.0;;;10.97;100.0
64023;BME280;50264;52.088;5.296;2023-04-01T00:17:32;99001.0;;;11.07;100.0
64023;BME280;50264;52.088;5.296;2023-04-01T00:20:45;99005.0;;;11.04;100.0
64023;BME280;50264;52.088;5.296;2023-04-01T00:22:22;99002.0;;;11.09;100.0
64023;BME280;50264;52.088;5.296;2023-04-01T00:23:59;98999.0;;;11.05;100.0
64023;BME280;50264;52.088;5.296;2023-04-01T00:27:11;99003.0;;;11.09;100.0
64023;BME280;50264;52.088;5.296;2023-04-01T00:28:48;99005.0;;;11.1;100.0
64023;BME280;50264;52.088;5.296;2023-04-01T00:30:25;99008.0;;;11.03;100.0
64023;BME280;50264;52.088;5.296;2023-04-01T00:32:01;99005.0;;;11.11;100.0
64023;BME280;50264;52.088;5.296;2023-04-01T00:35:14;99006.0;;;11.07;100.0
64023;BME280;50264;52.088;5.296;2023-04-01T00:36:52;99006.0;;;11.04;100.0
64023;BME280;50264;52.088;5.296;2023-04-01T00:38:28;99005.0;;;10.99;100.0
64023;BME280;50264;52.088;5.296;2023-04-01T00:42:02;99013.0;;;10.93;100.0
64023;BME280;50264;52.088;5.296;2023-04-01T00:43:39;99010.0;;;11.01;100.0
64023;BME280;50264;52.088;5.296;2023-04-01T00:45:27;99010.0;;;11.04;100.0
64023;BME280;50264;52.088;5.296;2023-04-01T00:47:05;99011.0;;;10.95;100.0
64023;BME280;50264;52.088;5.296;2023-04-01T00:50:22;99008.0;;;10.88;100.0
64023;BME280;50264;52.088;5.296;2023-04-01T00:52:02;99008.0;;;10.84;100.0
64023;BME280;50264;52.088;5.296;2023-04-01T00:53:41;99012.0;;;10.79;100.0
64023;BME280;50264;52.088;5.296;2023-04-01T00:55:21;99009.0;;;10.79;100.0
64023;BME280;50264;52.088;5.296;2023-04-01T00:58:42;99014.0;;;10.81;100.0
64023;BME280;50264;52.088;5.296;2023-04-01T01:00:20;99008.0;;;10.77;100.0
64023;BME280;50264;52.088;5.296;2023-04-01T01:01:56;99005.0;;;10.77;100.0
64023;BME280;50264;52.088;5.296;2023-04-01T01:03:32;99016.0;;;10.63;100.0
64023;BME280;50264;52.088;5.296;2023-04-01T01:06:53;99017.0;;;10.7;100.0
64023;BME280;50264;52.088;5.296;2023-04-01T01:08:46;99017.0;;;10.68;100.0
64023;BME280;50264;52.088;5.296;2023-04-01T01:10:39;99015.0;;;10.66;100.0
64023;BME280;50264;52.088;5.296;2023-04-01T01:12:18;99014.0;;;10.75;100.0
64023;BME280;50264;52.088;5.296;2023-04-01T01:13:58;99022.0;;;10.7;100.0
64023;BME280;50264;52.088;5.296;2023-04-01T01:17:30;99017.0;;;10.78;100.0
64023;BME280;50264;52.088;5.296;2023-04-01T01:19:29;99021.0;;;10.79;100.0
64023;BME280;50264;52.088;5.296;2023-04-01T01:21:58;99025.0;;;10.76;100.0
64023;BME280;50264;52.088;5.296;2023-04-01T01:24:28;99027.0;;;10.78;100.0
64023;BME280;50264;52.088;5.296;2023-04-01T01:26:53;99031.0;;;10.78;100.0
64023;BME280;50264;52.088;5.296;2023-04-01T01:28:45;99028.0;;;10.75;100.0
64023;BME280;50264;52.088;5.296;2023-04-01T01:32:30;99030.0;;;10.72;100.0
64023;BME280;50264;52.088;5.296;2023-04-01T01:35:16;99030.0;;;10.66;100.0
64023;BME280;50264;52.088;5.296;2023-04-01T01:37:02;99030.0;;;10.72;100.0
64023;BME280;50264;52.088;5.296;2023-04-01T01:40:19;99032.0;;;10.7;100.0
64023;BME280;50264;52.088;5.296;2023-04-01T01:41:57;99036.0;;;10.62;100.0
64023;BME280;50264;52.088;5.296;2023-04-01T01:43:39;99034.0;;;10.54;100.0
64023;BME280;50264;52.088;5.296;2023-04-01T01:45:19;99036.0;;;10.54;100.0
64023;BME280;50264;52.088;5.296;2023-04-01T01:48:36;99032.0;;;10.62;100.0
64023;BME280;50264;52.088;5.296;2023-04-01T01:50:13;99031.0;;;10.6;100.0
64023;BME280;50264;52.088;5.296;2023-04-01T01:51:52;99039.0;;;10.65;100.0
64023;BME280;50264;52.088;5.296;2023-04-01T01:55:24;99038.0;;;10.51;100.0
64023;BME280;50264;52.088;5.296;2023-04-01T01:57:06;99037.0;;;10.36;100.0
64023;BME280;50264;52.088;5.296;2023-04-01T01:58:44;99035.0;;;10.34;100.0
64023;BME280;50264;52.088;5.296;2023-04-01T02:00:22;99035.0;;;10.42;100.0
64023;BME280;50264;52.088;5.296;2023-04-01T02:01:59;99038.0;;;10.18;100.0
64023;BME280;50264;52.088;5.296;2023-04-01T02:05:17;99040.0;;;10.27;100.0
64023;BME280;50264;52.088;5.296;2023-04-01T02:06:58;99043.0;;;10.34;100.0
64023;BME280;50264;52.088;5.296;2023-04-01T02:08:40;99039.0;;;10.34;100.0
64023;BME280;50264;52.088;5.296;2023-04-01T02:10:18;99041.0;;;10.35;100.0
64023;BME280;50264;52.088;5.296;2023-04-01T02:13:43;99043.0;;;10.41;100.0
64023;BME280;50264;52.088;5.296;2023-04-01T02:15:25;99049.0;;;10.37;100.0
64023;BME280;50264;52.088;5.296;2023-04-01T02:17:06;99049.0;;;10.3;100.0
64023;BME280;50264;52.088;5.296;2023-04-01T02:18:45;99053.0;;;10.23;100.0
64023;BME280;50264;52.088;5.296;2023-04-01T02:22:08;99055.0;;;10.23;100.0
64023;BME280;50264;52.088;5.296;2023-04-01T02:23:46;99058.0;;;10.26;100.0
64023;BME280;50264;52.088;5.296;2023-04-01T02:25:24;99056.0;;;10.32;100.0
64023;BME280;50264;52.088;5.296;2023-04-01T02:27:04;99063.0;;;10.28;100.0
64023;BME280;50264;52.088;5.296;2023-04-01T02:30:19;99057.0;;;10.31;100.0
64023;BME280;50264;52.088;5.296;2023-04-01T02:31:56;99062.0;;;10.18;100.0
64023;BME280;50264;52.088;5.296;2023-04-01T02:33:34;99059.0;;;10.23;100.0
64023;BME280;50264;52.088;5.296;2023-04-01T02:36:50;99060.0;;;10.07;100.0
64023;BME280;50264;52.088;5.296;2023-04-01T02:38:26;99062.0;;;10.24;100.0
64023;BME280;50264;52.088;5.296;2023-04-01T02:40:04;99063.0;;;10.25;100.0
64023;BME280;50264;52.088;5.296;2023-04-01T02:41:44;99068.0;;;10.27;100.0
64023;BME280;50264;52.088;5.296;2023-04-01T02:44:57;99068.0;;;10.3;100.0
64023;BME280;50264;52.088;5.296;2023-04-01T02:46:33;99060.0;;;10.3;100.0
64023;BME280;50264;52.088;5.296;2023-04-01T02:48:09;99063.0;;;10.37;100.0
64023;BME280;50264;52.088;5.296;2023-04-01T02:51:21;99074.0;;;10.23;100.0
64023;BME280;50264;52.088;5.296;2023-04-01T02:52:58;99067.0;;;10.19;100.0
64023;BME280;50264;52.088;5.296;2023-04-01T02:54:36;99070.0;;;10.18;100.0
64023;BME280;50264;52.088;5.296;2023-04-01T02:57:48;99067.0;;;10.22;100.0
64023;BME280;50264;52.088;5.296;2023-04-01T02:59:24;99071.0;;;10.27;100.0
64023;BME280;50264;52.088;5.296;2023-04-01T03:01:00;99071.0;;;10.29;100.0
64023;BME280;50264;52.088;5.296;2023-04-01T03:02:37;99077.0;;;10.23;100.0
64023;BME280;50264;52.088;5.296;2023-04-01T03:05:49;99076.0;;;10.22;100.0
64023;BME280;50264;52.088;5.296;2023-04-01T03:07:25;99078.0;;;10.27;100.0
64023;BME280;50264;52.088;5.296;2023-04-01T03:09:02;99084.0;;;10.31;100.0
64023;BME280;50264;52.088;5.296;2023-04-01T03:12:14;99078.0;;;10.41;100.0
64023;BME280;50264;52.088;5.296;2023-04-01T03:13:50;99087.0;;;10.46;100.0
64023;BME280;50264;52.088;5.296;2023-04-01T03:15:26;99090.0;;;10.45;100.0
64023;BME280;50264;52.088;5.296;2023-04-01T03:18:38;99091.0;;;10.35;100.0
64023;BME280;50264;52.088;5.296;2023-04-01T03:20:15;99096.0;;;10.28;100.0
64023;BME280;50264;52.088;5.296;2023-04-01T03:21:52;99095.0;;;10.35;100.0
64023;BME280;50264;52.088;5.296;2023-04-01T03:25:06;99099.0;;;10.4;100.0
64023;BME280;50264;52.088;5.296;2023-04-01T03:26:42;99101.0;;;10.39;100.0
64023;BME280;50264;52.088;5.296;2023-04-01T03:28:18;99105.0;;;10.37;100.0
64023;BME280;50264;52.088;5.296;2023-04-01T03:29:54;99107.0;;;10.37;100.0
64023;BME280;50264;52.088;5.296;2023-04-01T03:33:07;99106.0;;;10.36;100.0
64023;BME280;50264;52.088;5.296;2023-04-01T03:34:43;99114.0;;;10.35;100.0
64023;BME280;50264;52.088;5.296;2023-04-01T03:36:19;99113.0;;;10.38;100.0
64023;BME280;50264;52.088;5.296;2023-04-01T03:39:31;99117.0;;;10.3;100.0
64023;BME280;50264;52.088;5.296;2023-04-01T03:41:11;99124.0;;;10.27;100.0
64023;BME280;50264;52.088;5.296;2023-04-01T03:42:47;99117.0;;;10.41;100.0
64023;BME280;50264;52.088;5.296;2023-04-01T03:46:01;99123.0;;;10.33;100.0
64023;BME280;50264;52.088;5.296;2023-04-01T03:47:37;99120.0;;;10.4;100.0
64023;BME280;50264;52.088;5.296;2023-04-01T03:49:13;99123.0;;;10.45;100.0
64023;BME280;50264;52.088;5.296;2023-04-01T03:50:49;99125.0;;;10.52;100.0
64023;BME280;50264;52.088;5.296;2023-04-01T03:54:01;99130.0;;;10.39;100.0
64023;BME280;50264;52.088;5.296;2023-04-01T03:55:38;99130.0;;;10.43;100.0
64023;BME280;50264;52.088;5.296;2023-04-01T03:57:14;99126.0;;;10.48;100.0
64023;BME280;50264;52.088;5.296;2023-04-01T04:00:27;99132.0;;;10.52;100.0
64023;BME280;50264;52.088;5.296;2023-04-01T04:02:04;99136.0;;;10.62;100.0
64023;BME280;50264;52.088;5.296;2023-04-01T04:03:40;99133.0;;;10.65;100.0
64023;BME280;50264;52.088;5.296;2023-04-01T04:06:53;99137.0;;;10.69;100.0
64023;BME280;50264;52.088;5.296;2023-04-01T04:08:29;99144.0;;;10.67;100.0
64023;BME280;50264;52.088;5.296;2023-04-01T04:10:07;99143.0;;;10.68;100.0
64023;BME280;50264;52.088;5.296;2023-04-01T04:11:42;99148.0;;;10.74;100.0
64023;BME280;50264;52.088;5.296;2023-04-01T04:14:55;99153.0;;;10.72;100.0
64023;BME280;50264;52.088;5.296;2023-04-01T04:16:35;99151.0;;;10.77;100.0
64023;BME280;50264;52.088;5.296;2023-04-01T04:18:11;99158.0;;;10.78;100.0
64023;BME280;50264;52.088;5.296;2023-04-01T04:21:23;99158.0;;;10.7;100.0
64023;BME280;50264;52.088;5.296;2023-04-01T04:23:00;99162.0;;;10.68;100.0
64023;BME280;50264;52.088;5.296;2023-04-01T04:24:37;99164.0;;;10.68;100.0
64023;BME280;50264;52.088;5.296;2023-04-01T04:27:51;99171.0;;;10.55;100.0
64023;BME280;50264;52.088;5.296;2023-04-01T04:29:27;99178.0;;;10.53;100.0
64023;BME280;50264;52.088;5.296;2023-04-01T04:31:03;99175.0;;;10.54;100.0
64023;BME280;50264;52.088;5.296;2023-04-01T04:32:40;99177.0;;;10.67;100.0
64023;BME280;50264;52.088;5.296;2023-04-01T04:35:55;99180.0;;;10.66;100.0
64023;BME280;50264;52.088;5.296;2023-04-01T04:37:31;99181.0;;;10.54;100.0
64023;BME280;50264;52.088;5.296;2023-04-01T04:39:08;99189.0;;;10.53;100.0
64023;BME280;50264;52.088;5.296;2023-04-01T04:42:21;99194.0;;;10.56;100.0
64023;BME280;50264;52.088;5.296;2023-04-01T04:43:57;99197.0;;;10.67;100.0
64023;BME280;50264;52.088;5.296;2023-04-01T04:45:33;99205.0;;;10.63;100.0
64023;BME280;50264;52.088;5.296;2023-04-01T04:48:45;99205.0;;;10.53;100.0
64023;BME280;50264;52.088;5.296;2023-04-01T04:50:22;99206.0;;;10.57;100.0
64023;BME280;50264;52.088;5.296;2023-04-01T04:51:59;99212.0;;;10.52;100.0
64023;BME280;50264;52.088;5.296;2023-04-01T04:53:35;99221.0;;;10.58;100.0
64023;BME280;50264;52.088;5.296;2023-04-01T04:56:48;99225.0;;;10.49;100.0
64023;BME280;50264;52.088;5.296;2023-04-01T04:58:27;99230.0;;;10.52;100.0
64023;BME280;50264;52.088;5.296;2023-04-01T05:00:04;99233.0;;;10.51;100.0
64023;BME280;50264;52.088;5.296;2023-04-01T05:03:17;99239.0;;;10.66;100.0
64023;BME280;50264;52.088;5.296;2023-04-01T05:04:53;99238.0;;;10.56;100.0
64023;BME280;50264;52.088;5.296;2023-04-01T05:06:29;99245.0;;;10.67;100.0
64023;BME280;50264;52.088;5.296;2023-04-01T05:09:41;99248.0;;;10.65;100.0
64023;BME280;50264;52.088;5.296;2023-04-01T05:11:19;99249.0;;;10.65;100.0
64023;BME280;50264;52.088;5.296;2023-04-01T05:12:55;99249.0;;;10.61;100.0
64023;BME280;50264;52.088;5.296;2023-04-01T05:14:30;99252.0;;;10.69;100.0
64023;BME280;50264;52.088;5.296;2023-04-01T05:17:44;99253.0;;;10.62;100.0
64023;BME280;50264;52.088;5.296;2023-04-01T05:19:20;99261.0;;;10.72;100.0
64023;BME280;50264;52.088;5.296;2023-04-01T05:20:56;99265.0;;;10.7;100.0
64023;BME280;50264;52.088;5.296;2023-04-01T05:24:08;99266.0;;;10.8;100.0
64023;BME280;50264;52.088;5.296;2023-04-01T05:25:44;99264.0;;;10.87;100.0
64023;BME280;50264;52.088;5.296;2023-04-01T05:27:20;99274.0;;;10.82;100.0
64023;BME280;50264;52.088;5.296;2023-04-01T05:30:31;99273.0;;;10.76;100.0
64023;BME280;50264;52.088;5.296;2023-04-01T05:32:07;99278.0;;;10.7;100.0
64023;BME280;50264;52.088;5.296;2023-04-01T05:33:43;99283.0;;;10.7;100.0
64023;BME280;50264;52.088;5.296;2023-04-01T05:35:19;99285.0;;;10.59;100.0
64023;BME280;50264;52.088;5.296;2023-04-01T05:38:32;99287.0;;;10.69;100.0
64023;BME280;50264;52.088;5.296;2023-04-01T05:40:09;99295.0;;;10.64;100.0
64023;BME280;50264;52.088;5.296;2023-04-01T05:41:45;99299.0;;;10.8;100.0
64023;BME280;50264;52.088;5.296;2023-04-01T05:44:57;99301.0;;;10.71;100.0
64023;BME280;50264;52.088;5.296;2023-04-01T05:46:33;99305.0;;;10.63;100.0
64023;BME280;50264;52.088;5.296;2023-04-01T05:48:09;99310.0;;;10.67;100.0
64023;BME280;50264;52.088;5.296;2023-04-01T05:51:22;99305.0;;;10.75;100.0
64023;BME280;50264;52.088;5.296;2023-04-01T05:52:59;99307.0;;;10.61;100.0
64023;BME280;50264;52.088;5.296;2023-04-01T05:54:35;99310.0;;;10.77;100.0
64023;BME280;50264;52.088;5.296;2023-04-01T05:57:47;99315.0;;;10.78;100.0
64023;BME280;50264;52.088;5.296;2023-04-01T05:59:23;99316.0;;;10.79;100.0
64023;BME280;50264;52.088;5.296;2023-04-01T06:01:01;99316.0;;;10.78;100.0
64023;BME280;50264;52.088;5.296;2023-04-01T06:02:37;99318.0;;;10.71;100.0
64023;BME280;50264;52.088;5.296;2023-04-01T06:05:52;99324.0;;;10.75;100.0
64023;BME280;50264;52.088;5.296;2023-04-01T06:07:28;99327.0;;;10.74;100.0
64023;BME280;50264;52.088;5.296;2023-04-01T06:09:13;99330.0;;;10.65;100.0
64023;BME280;50264;52.088;5.296;2023-04-01T06:12:45;99332.0;;;10.73;100.0
64023;BME280;50264;52.088;5.296;2023-04-01T06:14:44;99332.0;;;10.67;100.0
64023;BME280;50264;52.088;5.296;2023-04-01T06:16:34;99335.0;;;10.64;100.0
64023;BME280;50264;52.088;5.296;2023-04-01T06:18:35;99348.0;;;10.57;100.0
64023;BME280;50264;52.088;5.296;2023-04-01T06:21:10;99342.0;;;10.7;100.0
64023;BME280;50264;52.088;5.296;2023-04-01T06:23:11;99348.0;;;10.6;100.0
64023;BME280;50264;52.088;5.296;2023-04-01T06:25:27;99355.0;;;10.58;100.0
64023;BME280;50264;52.088;5.296;2023-04-01T06:27:16;99362.0;;;10.55;100.0
64023;BME280;50264;52.088;5.296;2023-04-01T06:29:08;99363.0;;;10.51;100.0
64023;BME280;50264;52.088;5.296;2023-04-01T06:31:11;99364.0;;;10.54;100.0
64023;BME280;50264;52.088;5.296;2023-04-01T06:34:02;99366.0;;;10.55;100.0
64023;BME280;50264;52.088;5.296;2023-04-01T06:35:52;99374.0;;;10.71;100.0
64023;BME280;50264;52.088;5.296;2023-04-01T06:38:10;99377.0;;;10.72;100.0
64023;BME280;50264;52.088;5.296;2023-04-01T06:41:23;99380.0;;;10.6;100.0
64023;BME280;50264;52.088;5.296;2023-04-01T06:44:16;99384.0;;;10.58;100.0
64023;BME280;50264;52.088;5.296;2023-04-01T06:46:05;99389.0;;;10.56;100.0
64023;BME280;50264;52.088;5.296;2023-04-01T06:47:54;99390.0;;;10.61;100.0
64023;BME280;50264;52.088;5.296;2023-04-01T06:49:44;99393.0;;;10.68;100.0
64023;BME280;50264;52.088;5.296;2023-04-01T06:51:39;99396.0;;;10.72;100.0
64023;BME280;50264;52.088;5.296;2023-04-01T06:53:25;99405.0;;;10.7;100.0
64023;BME280;50264;52.088;5.296;2023-04-01T06:55:20;99405.0;;;10.66;100.0
64023;BME280;50264;52.088;5.296;2023-04-01T06:57:08;99409.0;;;10.64;100.0
64023;BME280;50264;52.088;5.296;2023-04-01T07:00:40;99413.0;;;10.83;100.0
64023;BME280;50264;52.088;5.296;2023-04-01T07:02:24;99416.0;;;10.88;100.0
64023;BME280;50264;52.088;5.296;2023-04-01T07:04:10;99421.0;;;10.85;100.0
64023;BME280;50264;52.088;5.296;2023-04-01T07:05:49;99420.0;;;10.85;100.0
64023;BME280;50264;52.088;5.296;2023-04-01T07:07:33;99426.0;;;10.87;100.0
64023;BME280;50264;52.088;5.296;2023-04-01T07:10:54;99430.0;;;10.72;100.0
64023;BME280;50264;52.088;5.296;2023-04-01T07:12:39;99436.0;;;10.83;100.0
64023;BME280;50264;52.088;5.296;2023-04-01T07:14:22;99434.0;;;10.83;100.0
64023;BME280;50264;52.088;5.296;2023-04-01T07:16:08;99440.0;;;10.93;100.0
64023;BME280;50264;52.088;5.296;2023-04-01T07:19:37;99440.0;;;11.03;100.0
64023;BME280;50264;52.088;5.296;2023-04-01T07:21:23;99443.0;;;11.02;100.0
64023;BME280;50264;52.088;5.296;2023-04-01T07:23:03;99447.0;;;11.02;100.0
64023;BME280;50264;52.088;5.296;2023-04-01T07:24:43;99452.0;;;11.02;100.0
64023;BME280;50264;52.088;5.296;2023-04-01T07:26:22;99457.0;;;11.08;100.0
64023;BME280;50264;52.088;5.296;2023-04-01T07:29:40;99456.0;;;11.13;100.0
64023;BME280;50264;52.088;5.296;2023-04-01T07:31:25;99463.0;;;11.12;100.0
64023;BME280;50264;52.088;5.296;2023-04-01T07:33:14;99466.0;;;11.13;100.0
64023;BME280;50264;52.088;5.296;2023-04-01T07:35:01;99474.0;;;11.08;100.0
64023;BME280;50264;52.088;5.296;2023-04-01T07:36:53;99466.0;;;10.9;100.0
64023;BME280;50264;52.088;5.296;2023-04-01T07:40:31;99476.0;;;10.97;100.0
64023;BME280;50264;52.088;5.296;2023-04-01T07:42:18;99480.0;;;10.84;100.0
64023;BME280;50264;52.088;5.296;2023-04-01T07:44:06;99481.0;;;10.88;100.0
64023;BME280;50264;52.088;5.296;2023-04-01T07:46:02;99482.0;;;10.78;100.0
64023;BME280;50264;52.088;5.296;2023-04-01T07:47:51;99485.0;;;10.73;100.0
64023;BME280;50264;52.088;5.296;2023-04-01T07:49:40;99489.0;;;10.73;100.0
64023;BME280;50264;52.088;5.296;2023-04-01T07:51:26;99493.0;;;10.77;100.0
64023;BME280;50264;52.088;5.296;2023-04-01T07:54:57;99500.0;;;10.91;100.0
64023;BME280;50264;52.088;5.296;2023-04-01T07:56:41;99508.0;;;10.94;100.0
64023;BME280;50264;52.088;5.296;2023-04-01T07:58:26;99508.0;;;10.96;100.0
64023;BME280;50264;52.088;5.296;2023-04-01T08:00:15;99511.0;;;11.01;100.0
64023;BME280;50264;52.088;5.296;2023-04-01T08:02:00;99515.0;;;11.08;100.0
64023;BME280;50264;52.088;5.296;2023-04-01T08:05:52;99514.0;;;10.99;100.0
64023;BME280;50264;52.088;5.296;2023-04-01T08:07:37;99520.0;;;10.93;100.0
64023;BME280;50264;52.088;5.296;2023-04-01T08:09:23;99525.0;;;10.9;100.0
64023;BME280;50264;52.088;5.296;2023-04-01T08:11:12;99526.0;;;10.97;100.0
64023;BME280;50264;52.088;5.296;2023-04-01T08:13:07;99531.0;;;11.06;100.0
64023;BME280;50264;52.088;5.296;2023-04-01T08:14:53;99536.0;;;11.06;100.0
64023;BME280;50264;52.088;5.296;2023-04-01T08:16:36;99536.0;;;11.07;100.0
64023;BME280;50264;52.088;5.296;2023-04-01T08:20:18;99538.0;;;10.99;100.0
64023;BME280;50264;52.088;5.296;2023-04-01T08:21:58;99552.0;;;11.19;100.0
64023;BME280;50264;52.088;5.296;2023-04-01T08:23:41;99546.0;;;11.17;100.0
64023;BME280;50264;52.088;5.296;2023-04-01T08:25:24;99549.0;;;11.16;100.0
64023;BME280;50264;52.088;5.296;2023-04-01T08:27:03;99549.0;;;11.05;100.0
64023;BME280;50264;52.088;5.296;2023-04-01T08:30:35;99555.0;;;11.08;100.0
64023;BME280;50264;52.088;5.296;2023-04-01T08:32:18;99563.0;;;11.15;100.0
64023;BME280;50264;52.088;5.296;2023-04-01T08:34:00;99563.0;;;11.11;100.0
64023;BME280;50264;52.088;5.296;2023-04-01T08:35:46;99567.0;;;11.19;100.0
64023;BME280;50264;52.088;5.296;2023-04-01T08:37:28;99569.0;;;11.03;100.0
64023;BME280;50264;52.088;5.296;2023-04-01T08:41:41;99575.0;;;11.14;100.0
64023;BME280;50264;52.088;5.296;2023-04-01T08:45:48;99577.0;;;11.06;100.0
64023;BME280;50264;52.088;5.296;2023-04-01T08:48:42;99582.0;;;10.99;100.0
64023;BME280;50264;52.088;5.296;2023-04-01T08:51:23;99593.0;;;11.09;100.0
64023;BME280;50264;52.088;5.296;2023-04-01T08:54:19;99589.0;;;11.18;100.0
64023;BME280;50264;52.088;5.296;2023-04-01T08:59:33;99594.0;;;11.12;100.0
64023;BME280;50264;52.088;5.296;2023-04-01T09:01:41;99600.0;;;11.18;100.0
64023;BME280;50264;52.088;5.296;2023-04-01T09:04:46;99602.0;;;11.29;100.0
64023;BME280;50264;52.088;5.296;2023-04-01T09:08:34;99605.0;;;11.18;100.0
64023;BME280;50264;52.088;5.296;2023-04-01T09:10:31;99608.0;;;11.16;100.0
64023;BME280;50264;52.088;5.296;2023-04-01T09:13:13;99615.0;;;11.2;100.0
64023;BME280;50264;52.088;5.296;2023-04-01T09:15:42;99616.0;;;11.29;100.0
64023;BME280;50264;52.088;5.296;2023-04-01T09:18:59;99619.0;;;11.32;100.0
64023;BME280;50264;52.088;5.296;2023-04-01T09:21:46;99627.0;;;11.38;100.0
64023;BME280;50264;52.088;5.296;2023-04-01T09:24:00;99626.0;;;11.26;100.0
64023;BME280;50264;52.088;5.296;2023-04-01T09:26:15;99627.0;;;11.34;100.0
64023;BME280;50264;52.088;5.296;2023-04-01T09:28:10;99630.0;;;11.24;100.0
64023;BME280;50264;52.088;5.296;2023-04-01T09:30:32;99632.0;;;11.24;100.0
64023;BME280;50264;52.088;5.296;2023-04-01T09:33:03;99632.0;;;11.22;100.0
64023;BME280;50264;52.088;5.296;2023-04-01T09:36:04;99639.0;;;11.47;100.0
64023;BME280;50264;52.088;5.296;2023-04-01T09:39:37;99639.0;;;11.47;100.0
64023;BME280;50264;52.088;5.296;2023-04-01T09:41:27;99643.0;;;11.51;100.0
64023;BME280;50264;52.088;5.296;2023-04-01T09:43:20;99646.0;;;11.52;100.0
64023;BME280;50264;52.088;5.296;2023-04-01T09:45:09;99647.0;;;11.6;100.0
64023;BME280;50264;52.088;5.296;2023-04-01T09:47:01;99648.0;;;11.47;100.0
64023;BME280;50264;52.088;5.296;2023-04-01T09:49:04;99656.0;;;11.48;100.0
64023;BME280;50264;52.088;5.296;2023-04-01T09:52:20;99655.0;;;11.54;100.0
64023;BME280;50264;52.088;5.296;2023-04-01T09:54:16;99657.0;;;11.55;100.0
64023;BME280;50264;52.088;5.296;2023-04-01T09:56:39;99652.0;;;11.61;100.0
64023;BME280;50264;52.088;5.296;2023-04-01T09:59:34;99661.0;;;11.49;100.0
64023;BME280;50264;52.088;5.296;2023-04-01T10:01:34;99665.0;;;11.59;100.0
64023;BME280;50264;52.088;5.296;2023-04-01T10:17:07;99685.0;;;11.49;100.0
64023;BME280;50264;52.088;5.296;2023-04-01T10:20:36;99688.0;;;11.52;100.0
64023;BME280;50264;52.088;5.296;2023-04-01T10:22:44;99687.0;;;11.68;100.0
64023;BME280;50264;52.088;5.296;2023-04-01T10:26:17;99691.0;;;11.83;100.0
64023;BME280;50264;52.088;5.296;2023-04-01T10:29:45;99693.0;;;12.03;100.0
64023;BME280;50264;52.088;5.296;2023-04-01T10:33:08;99694.0;;;12.28;100.0
64023;BME280;50264;52.088;5.296;2023-04-01T10:36:53;99696.0;;;12.61;100.0
64023;BME280;50264;52.088;5.296;2023-04-01T10:52:17;99713.0;;;12.3;99.85
64023;BME280;50264;52.088;5.296;2023-04-01T10:56:11;99714.0;;;12.37;100.0
64023;BME280;50264;52.088;5.296;2023-04-01T10:59:15;99714.0;;;12.45;100.0
64023;BME280;50264;52.088;5.296;2023-04-01T11:04:45;99719.0;;;12.55;100.0
64023;BME280;50264;52.088;5.296;2023-04-01T11:11:11;99720.0;;;12.54;100.0
64023;BME280;50264;52.088;5.296;2023-04-01T11:12:28;99727.0;;;12.76;100.0
64023;BME280;50264;52.088;5.296;2023-04-01T11:13:29;99727.0;;;12.76;100.0
64023;BME280;50264;52.088;5.296;2023-04-01T11:14:45;99727.0;;;12.76;100.0
64023;BME280;50264;52.088;5.296;2023-04-01T11:19:01;99725.0;;;12.87;99.74
64023;BME280;50264;52.088;5.296;2023-04-01T11:19:44;99727.0;;;12.82;99.37
64023;BME280;50264;52.088;5.296;2023-04-01T11:20:29;99727.0;;;12.82;99.37
64023;BME280;50264;52.088;5.296;2023-04-01T11:22:24;99731.0;;;12.92;99.17
64023;BME280;50264;52.088;5.296;2023-04-01T11:23:22;99733.0;;;13.01;100.0
64023;BME280;50264;52.088;5.296;2023-04-01T11:25:45;99735.0;;;13.08;100.0
64023;BME280;50264;52.088;5.296;2023-04-01T11:28:02;99741.0;;;13.05;100.0
64023;BME280;50264;52.088;5.296;2023-04-01T11:30:20;99740.0;;;13.04;98.97
64023;BME280;50264;52.088;5.296;2023-04-01T11:32:12;99745.0;;;12.94;99.09
64023;BME280;50264;52.088;5.296;2023-04-01T11:33:57;99756.0;;;12.87;98.68
64023;BME280;50264;52.088;5.296;2023-04-01T11:35:51;99755.0;;;12.94;100.0
64023;BME280;50264;52.088;5.296;2023-04-01T11:38:11;99756.0;;;12.89;98.29
64023;BME280;50264;52.088;5.296;2023-04-01T11:39:59;99758.0;;;12.92;98.11
64023;BME280;50264;52.088;5.296;2023-04-01T11:41:49;99763.0;;;13.01;99.47
64023;BME280;50264;52.088;5.296;2023-04-01T11:45:23;99764.0;;;13.11;99.37
64023;BME280;50264;52.088;5.296;2023-04-01T11:47:25;99761.0;;;13.2;96.78
64023;BME280;50264;52.088;5.296;2023-04-01T11:49:28;99767.0;;;13.25;96.96
64023;BME280;50264;52.088;5.296;2023-04-01T11:51:37;99773.0;;;13.39;98.25
64023;BME280;50264;52.088;5.296;2023-04-01T11:54:06;99775.0;;;13.52;95.67
64023;BME280;50264;52.088;5.296;2023-04-01T11:57:56;99778.0;;;13.5;95.99
64023;BME280;50264;52.088;5.296;2023-04-01T11:59:52;99780.0;;;13.58;97.64
64023;BME280;50264;52.088;5.296;2023-04-01T12:01:46;99782.0;;;13.64;95.61
64023;BME280;50264;52.088;5.296;2023-04-01T12:03:42;99782.0;;;13.39;91.12
64023;BME280;50264;52.088;5.296;2023-04-01T12:06:02;99791.0;;;13.29;93.09
64023;BME280;50264;52.088;5.296;2023-04-01T12:07:55;99795.0;;;13.01;93.82
64023;BME280;50264;52.088;5.296;2023-04-01T12:09:44;99794.0;;;13.08;97.2
64023;BME280;50264;52.088;5.296;2023-04-01T12:11:31;99799.0;;;12.82;96.76
64023;BME280;50264;52.088;5.296;2023-04-01T12:13:19;99808.0;;;12.82;97.9
64023;BME280;50264;52.088;5.296;2023-04-01T12:15:13;99805.0;;;12.9;98.28
64023;BME280;50264;52.088;5.296;2023-04-01T12:18:43;99807.0;;;12.92;98.78
64023;BME280;50264;52.088;5.296;2023-04-01T12:20:30;99810.0;;;12.91;99.96
64023;BME280;50264;52.088;5.296;2023-04-01T12:22:24;99808.0;;;12.88;99.77